createdAt,value
2019-02-04T00:01:49.325Z,50.15
2019-02-04T00:04:22.003Z,49.82
2019-02-04T00:06:56.983Z,50.27
2019-02-04T00:09:28.599Z,50.31
2019-02-04T00:15:06.443Z,49.72
2019-02-04T00:18:02.049Z,50.97
2019-02-04T00:21:02.089Z,50.73
2019-02-04T00:24:35.005Z,49.02
2019-02-04T00:27:36.125Z,48.64
2019-02-04T00:30:33.793Z,48.79
2019-02-04T00:33:09.256Z,48.25
2019-02-04T00:35:43.049Z,48.42
2019-02-04T00:38:15.238Z,48.49
2019-02-04T00:40:48.831Z,47.98
2019-02-04T00:43:40.943Z,48.28
2019-02-04T00:46:38.305Z,48.27
2019-02-04T00:49:23.492Z,47.97
2019-02-04T00:51:55.640Z,47.42
2019-02-04T00:54:26.711Z,47.33
2019-02-04T00:57:06.862Z,47.38
2019-02-04T00:59:37.110Z,47.71
2019-02-04T01:02:11.215Z,47.65
2019-02-04T01:04:42.687Z,47.19
2019-02-04T01:07:13.331Z,47.15
2019-02-04T01:09:48.787Z,46.85
2019-02-04T01:12:26.666Z,46.77
2019-02-04T01:15:21.557Z,46.70
2019-02-04T01:18:03.619Z,46.89
2019-02-04T01:20:49.022Z,47.13
2019-02-04T01:23:20.765Z,47.02
2019-02-04T01:25:55.126Z,47.36
2019-02-04T01:28:27.174Z,47.45
2019-02-04T01:30:57.541Z,47.50
2019-02-04T01:33:31.682Z,47.47
2019-02-04T01:36:05.823Z,47.95
2019-02-04T01:39:10.602Z,47.70
2019-02-04T01:41:46.005Z,47.77
2019-02-04T01:44:19.863Z,47.70
2019-02-04T01:47:01.399Z,47.79
2019-02-04T01:49:33.362Z,47.90
2019-02-04T01:52:09.352Z,47.99
2019-02-04T01:54:43.438Z,47.94
2019-02-04T01:57:20.043Z,48.01
2019-02-04T01:59:59.169Z,47.77
2019-02-04T02:02:35.613Z,47.98
2019-02-04T02:05:12.882Z,47.90
2019-02-04T02:07:49.084Z,47.90
2019-02-04T02:10:25.286Z,48.65
2019-02-04T02:13:01.263Z,48.23
2019-02-04T02:15:46.239Z,47.81
2019-02-04T02:18:25.127Z,47.76
2019-02-04T02:21:12.946Z,47.60
2019-02-04T02:24:11.301Z,48.00
2019-02-04T02:26:44.275Z,47.79
2019-02-04T02:29:20.061Z,47.68
2019-02-04T02:31:55.041Z,47.52
2019-02-04T02:34:30.239Z,47.37
2019-02-04T02:37:02.495Z,47.20
2019-02-04T02:39:34.029Z,47.11
2019-02-04T02:42:06.752Z,47.22
2019-02-04T02:44:43.151Z,47.16
2019-02-04T02:47:15.180Z,47.03
2019-02-04T02:49:48.048Z,47.08
2019-02-04T02:52:18.249Z,47.38
2019-02-04T02:54:51.178Z,47.09
2019-02-04T02:57:26.997Z,47.05
2019-02-04T03:00:05.043Z,46.94
2019-02-04T03:02:45.933Z,47.89
2019-02-04T03:05:20.968Z,47.64
2019-02-04T03:07:56.473Z,47.71
2019-02-04T03:10:35.098Z,47.62
2019-02-04T03:13:15.154Z,48.39
2019-02-04T03:15:48.837Z,49.12
2019-02-04T03:18:19.850Z,48.08
2019-02-04T03:20:58.687Z,47.85
2019-02-04T03:23:33.044Z,48.39
2019-02-04T03:26:09.924Z,48.29
2019-02-04T03:28:44.377Z,49.24
2019-02-04T03:31:19.165Z,49.73
2019-02-04T03:33:57.243Z,49.52
2019-02-04T03:36:27.727Z,49.81
2019-02-04T03:39:00.936Z,49.80
2019-02-04T03:41:34.869Z,49.93
2019-02-04T03:44:07.225Z,49.84
2019-02-04T03:46:42.356Z,50.41
2019-02-04T03:49:14.008Z,49.90
2019-02-04T03:51:47.282Z,50.38
2019-02-04T03:54:19.803Z,50.57
2019-02-04T03:56:51.505Z,51.23
2019-02-04T03:59:22.059Z,51.73
2019-02-04T04:01:57.820Z,51.12
2019-02-04T04:04:29.829Z,51.42
2019-02-04T04:07:03.083Z,51.53
2019-02-04T04:09:38.896Z,51.46
2019-02-04T04:12:37.410Z,50.67
2019-02-04T04:15:13.063Z,51.59
2019-02-04T04:18:18.613Z,51.16
2019-02-04T04:20:56.307Z,52.05
2019-02-04T04:23:57.382Z,53.22
2019-02-04T04:26:42.632Z,51.90
2019-02-04T04:29:17.604Z,52.46
2019-02-04T04:31:56.467Z,51.96
2019-02-04T04:34:35.763Z,51.87
2019-02-04T04:37:08.341Z,53.04
2019-02-04T04:39:39.189Z,52.91
2019-02-04T04:42:09.943Z,53.04
2019-02-04T04:44:43.092Z,54.33
2019-02-04T04:47:21.303Z,54.72
2019-02-04T04:49:56.425Z,55.10
2019-02-04T04:52:44.239Z,54.97
2019-02-04T04:55:21.381Z,54.61
2019-02-04T05:01:02.731Z,55.25
2019-02-04T05:03:33.738Z,54.80
2019-02-04T05:06:04.721Z,55.84
2019-02-04T05:08:38.452Z,55.42
2019-02-04T05:11:09.635Z,54.68
2019-02-04T05:13:44.056Z,54.51
2019-02-04T05:16:15.618Z,55.40
2019-02-04T05:18:47.409Z,54.70
2019-02-04T05:21:17.895Z,54.64
2019-02-04T05:23:51.726Z,55.86
2019-02-04T05:26:23.070Z,56.29
2019-02-04T05:28:55.751Z,55.26
2019-02-04T05:31:26.530Z,55.75
2019-02-04T05:33:58.572Z,54.69
2019-02-04T05:36:29.085Z,53.51
2019-02-04T05:39:02.191Z,54.43
2019-02-04T05:41:35.430Z,54.55
2019-02-04T05:44:18.932Z,54.50
2019-02-04T05:47:03.790Z,53.69
2019-02-04T05:49:49.107Z,53.99
2019-02-04T05:52:32.121Z,54.00
2019-02-04T05:55:04.137Z,54.47
2019-02-04T05:57:35.415Z,53.96
2019-02-04T06:00:11.299Z,53.58
2019-02-04T06:02:41.857Z,53.39
2019-02-04T06:05:18.198Z,54.30
2019-02-04T06:07:53.282Z,53.31
2019-02-04T06:10:29.740Z,54.02
2019-02-04T06:13:07.894Z,53.96
2019-02-04T06:15:45.208Z,54.85
2019-02-04T06:18:23.533Z,54.17
2019-02-04T06:21:07.890Z,55.01
2019-02-04T06:23:46.599Z,54.83
2019-02-04T06:26:18.703Z,55.74
2019-02-04T06:28:50.050Z,55.37
2019-02-04T06:31:24.335Z,55.29
2019-02-04T06:33:56.268Z,55.20
2019-02-04T06:36:41.661Z,55.53
2019-02-04T06:39:13.338Z,55.38
2019-02-04T06:41:49.993Z,54.39
2019-02-04T06:44:22.553Z,54.75
2019-02-04T06:46:56.179Z,54.58
2019-02-04T06:49:29.559Z,54.44
2019-02-04T06:52:02.922Z,54.27
2019-02-04T06:54:38.300Z,53.89
2019-02-04T06:57:10.640Z,54.17
2019-02-04T06:59:59.039Z,53.41
2019-02-04T07:02:33.957Z,54.63
2019-02-04T07:05:07.562Z,54.63
2019-02-04T07:07:39.435Z,53.62
2019-02-04T07:10:17.911Z,53.80
2019-02-04T07:12:50.436Z,53.85
2019-02-04T07:15:22.878Z,53.99
2019-02-04T07:17:53.544Z,53.64
2019-02-04T07:20:29.157Z,53.85
2019-02-04T07:23:03.029Z,54.07
2019-02-04T07:25:37.013Z,53.69
2019-02-04T07:28:11.817Z,54.12
2019-02-04T07:30:43.174Z,54.46
2019-02-04T07:33:15.006Z,53.30
2019-02-04T07:35:45.225Z,54.45
2019-02-04T07:38:16.423Z,54.27
2019-02-04T07:40:50.006Z,55.36
2019-02-04T07:43:25.061Z,56.37
2019-02-04T07:45:59.713Z,55.47
2019-02-04T07:48:34.968Z,54.62
2019-02-04T07:51:06.016Z,54.31
2019-02-04T07:53:58.026Z,53.34
2019-02-04T07:56:30.513Z,54.67
2019-02-04T07:59:05.297Z,56.07
2019-02-04T08:01:43.587Z,55.61
2019-02-04T08:04:14.878Z,54.29
2019-02-04T08:06:46.461Z,53.56
2019-02-04T08:09:18.925Z,53.77
2019-02-04T08:11:49.834Z,54.01
2019-02-04T08:14:21.693Z,53.80
2019-02-04T08:16:55.067Z,54.21
2019-02-04T08:19:27.336Z,53.64
2019-02-04T08:21:58.966Z,53.57
2019-02-04T08:24:31.030Z,54.22
2019-02-04T08:27:02.848Z,53.12
2019-02-04T08:29:36.237Z,53.52
2019-02-04T08:32:09.184Z,52.76
2019-02-04T08:34:40.311Z,52.36
2019-02-04T08:37:12.716Z,54.39
2019-02-04T08:39:47.177Z,53.85
2019-02-04T08:42:20.920Z,52.88
2019-02-04T08:44:53.579Z,52.04
2019-02-04T08:47:24.262Z,53.96
2019-02-04T08:49:58.393Z,52.82
2019-02-04T08:52:30.616Z,53.10
2019-02-04T08:55:05.254Z,52.99
2019-02-04T08:57:42.316Z,53.39
2019-02-04T09:00:19.226Z,52.80
2019-02-04T09:02:52.705Z,52.57
2019-02-04T09:05:25.986Z,53.77
2019-02-04T09:07:58.457Z,52.74
2019-02-04T09:10:31.989Z,53.31
2019-02-04T09:13:06.209Z,52.29
2019-02-04T09:15:37.679Z,52.51
2019-02-04T09:18:13.715Z,52.64
2019-02-04T09:20:48.014Z,53.16
2019-02-04T09:23:20.895Z,53.38
2019-02-04T09:25:55.155Z,52.89
2019-02-04T09:28:43.013Z,52.07
2019-02-04T09:31:15.331Z,53.34
2019-02-04T09:33:48.193Z,52.62
2019-02-04T09:36:25.722Z,50.95
2019-02-04T09:38:56.707Z,50.87
2019-02-04T09:41:31.015Z,50.73
2019-02-04T09:44:05.237Z,50.80
2019-02-04T09:46:39.407Z,49.62
2019-02-04T09:49:09.950Z,49.47
2019-02-04T09:51:43.074Z,49.26
2019-02-04T09:54:17.298Z,49.99
2019-02-04T09:56:48.731Z,50.77
2019-02-04T09:59:23.644Z,49.80
2019-02-04T10:02:00.115Z,50.30
2019-02-04T10:04:33.186Z,50.32
2019-02-04T10:07:03.618Z,51.03
2019-02-04T10:09:34.542Z,49.81
2019-02-04T10:12:07.210Z,49.75
2019-02-04T10:14:38.576Z,49.57
2019-02-04T10:17:09.571Z,50.35
2019-02-04T10:19:42.912Z,50.19
2019-02-04T10:22:18.748Z,48.55
2019-02-04T10:24:50.127Z,48.77
2019-02-04T10:27:23.565Z,47.99
2019-02-04T10:29:56.215Z,48.01
2019-02-04T10:32:30.837Z,48.40
2019-02-04T10:35:16.342Z,48.57
2019-02-04T10:37:46.633Z,48.00
2019-02-04T10:40:21.688Z,47.36
2019-02-04T10:42:52.231Z,48.28
2019-02-04T10:45:23.504Z,47.44
2019-02-04T10:47:58.734Z,47.45
2019-02-04T10:50:32.084Z,47.47
2019-02-04T10:53:04.732Z,46.29
2019-02-04T10:55:35.422Z,46.06
2019-02-04T10:58:11.397Z,45.92
2019-02-04T11:00:44.457Z,46.40
2019-02-04T11:03:20.080Z,45.82
2019-02-04T11:05:54.467Z,43.98
2019-02-04T11:08:26.569Z,44.94
2019-02-04T11:10:59.590Z,45.46
2019-02-04T11:13:30.237Z,44.85
2019-02-04T11:16:05.200Z,44.95
2019-02-04T11:18:37.017Z,44.30
2019-02-04T11:21:07.800Z,43.81
2019-02-04T11:23:41.340Z,43.35
2019-02-04T11:26:11.441Z,42.30
2019-02-04T11:28:45.565Z,41.75
2019-02-04T11:31:17.064Z,40.04
2019-02-04T11:33:51.472Z,38.85
2019-02-04T11:36:25.033Z,38.60
2019-02-04T11:39:04.092Z,39.28
2019-02-04T11:41:40.922Z,38.97
2019-02-04T11:44:13.799Z,38.07
2019-02-04T11:46:49.687Z,37.65
2019-02-04T11:49:30.343Z,37.85
2019-02-04T11:52:07.822Z,38.33
2019-02-04T11:54:46.542Z,38.86
2019-02-04T11:57:17.192Z,38.82
2019-02-04T11:59:57.452Z,38.19
2019-02-04T12:02:34.589Z,38.79
2019-02-04T12:05:05.886Z,39.09
2019-02-04T12:07:41.805Z,37.91
2019-02-04T12:10:46.226Z,37.45
2019-02-04T12:13:19.641Z,36.79
2019-02-04T12:15:51.692Z,37.12
2019-02-04T12:18:26.196Z,36.61
2019-02-04T12:21:28.421Z,35.99
2019-02-04T12:24:02.886Z,36.23
2019-02-04T12:26:36.793Z,36.13
2019-02-04T12:29:08.735Z,36.27
2019-02-04T12:31:42.050Z,35.65
2019-02-04T12:34:15.983Z,34.86
2019-02-04T12:36:51.180Z,34.93
2019-02-04T12:39:30.319Z,33.57
2019-02-04T12:42:20.174Z,33.38
2019-02-04T12:45:00.539Z,32.46
2019-02-04T12:47:43.780Z,32.74
2019-02-04T12:50:24.122Z,32.29
2019-02-04T12:53:00.388Z,32.62
2019-02-04T12:55:39.466Z,32.78
2019-02-04T12:58:11.494Z,32.91
2019-02-04T13:00:43.872Z,31.94
2019-02-04T13:03:15.354Z,32.21
2019-02-04T13:05:49.014Z,32.70
2019-02-04T13:08:25.390Z,32.29
2019-02-04T13:11:07.744Z,31.29
2019-02-04T13:13:45.181Z,31.14
2019-02-04T13:16:17.609Z,31.59
2019-02-04T13:18:58.911Z,31.30
2019-02-04T13:21:45.565Z,31.21
2019-02-04T13:24:14.874Z,31.69
2019-02-04T13:27:01.049Z,31.35
2019-02-04T13:29:33.299Z,31.11
2019-02-04T13:32:08.967Z,30.70
2019-02-04T13:34:41.385Z,30.72
2019-02-04T13:37:14.794Z,31.08
2019-02-04T13:39:49.273Z,30.84
2019-02-04T13:42:21.752Z,31.01
2019-02-04T13:44:59.027Z,30.89
2019-02-04T13:47:31.622Z,31.28
2019-02-04T13:50:05.642Z,31.89
2019-02-04T13:52:40.511Z,31.39
2019-02-04T13:55:16.608Z,31.05
2019-02-04T13:57:51.859Z,31.14
2019-02-04T14:00:27.127Z,31.09
2019-02-04T14:03:05.751Z,30.82
2019-02-04T14:05:38.304Z,32.35
2019-02-04T14:08:09.098Z,31.80
2019-02-04T14:10:49.140Z,32.41
2019-02-04T14:13:25.370Z,31.43
2019-02-04T14:16:21.543Z,32.35
2019-02-04T14:19:00.525Z,32.56
2019-02-04T14:21:39.470Z,32.43
2019-02-04T14:24:13.825Z,31.71
2019-02-04T14:26:47.700Z,32.30
2019-02-04T14:29:20.408Z,32.09
2019-02-04T14:31:50.675Z,32.85
2019-02-04T14:34:28.473Z,32.84
2019-02-04T14:36:59.495Z,32.60
2019-02-04T14:39:32.792Z,33.15
2019-02-04T14:42:12.187Z,33.09
2019-02-04T14:45:20.555Z,33.00
2019-02-04T14:48:20.992Z,32.69
2019-02-04T14:51:24.856Z,32.61
2019-02-04T14:54:38.234Z,33.01
2019-02-04T14:57:28.545Z,33.90
2019-02-04T15:00:55.299Z,33.82
2019-02-04T15:04:09.781Z,34.39
2019-02-04T15:07:32.523Z,33.22
2019-02-04T15:10:54.076Z,33.41
2019-02-04T15:14:06.124Z,33.23
2019-02-04T15:17:10.603Z,33.02
2019-02-04T15:20:15.646Z,33.46
2019-02-04T15:23:47.496Z,34.22
2019-02-04T15:26:50.922Z,33.60
2019-02-04T15:29:46.168Z,33.79
2019-02-04T15:32:29.352Z,34.89
2019-02-04T15:35:34.396Z,35.05
2019-02-04T15:38:43.496Z,35.35
2019-02-04T15:41:57.775Z,34.78
2019-02-04T15:45:00.372Z,33.58
2019-02-04T15:47:44.763Z,34.60
2019-02-04T15:50:47.969Z,35.00
2019-02-04T15:53:21.734Z,34.53
2019-02-04T15:55:57.839Z,34.19
2019-02-04T15:58:31.417Z,34.31
2019-02-04T16:01:04.929Z,34.60
2019-02-04T16:03:45.279Z,33.95
2019-02-04T16:06:19.518Z,34.24
2019-02-04T16:08:54.185Z,34.86
2019-02-04T16:11:47.603Z,35.06
2019-02-04T16:14:29.517Z,34.93
2019-02-04T16:17:01.712Z,34.31
2019-02-04T16:19:33.253Z,34.42
2019-02-04T16:22:06.551Z,33.66
2019-02-04T16:24:38.950Z,33.74
2019-02-04T16:27:12.100Z,33.89
2019-02-04T16:29:49.304Z,34.31
2019-02-04T16:32:27.519Z,33.82
2019-02-04T16:35:04.914Z,34.36
2019-02-04T16:37:40.566Z,33.87
2019-02-04T16:40:15.201Z,34.13
2019-02-04T16:42:57.632Z,34.32
2019-02-04T16:45:30.515Z,35.03
2019-02-04T16:48:01.380Z,34.55
2019-02-04T16:50:33.284Z,34.11
2019-02-04T16:53:10.502Z,34.76
2019-02-04T16:55:42.474Z,35.41
2019-02-04T16:58:16.699Z,34.80
2019-02-04T17:00:49.549Z,34.91
2019-02-04T17:03:24.612Z,34.89
2019-02-04T17:05:54.912Z,34.98
2019-02-04T17:08:27.596Z,35.16
2019-02-04T17:11:02.522Z,35.38
2019-02-04T17:13:35.239Z,34.72
2019-02-04T17:16:09.380Z,34.17
2019-02-04T17:18:41.559Z,34.22
2019-02-04T17:21:18.033Z,34.39
2019-02-04T17:23:52.064Z,34.29
2019-02-04T17:26:23.398Z,34.21
2019-02-04T17:29:02.442Z,34.34
2019-02-04T17:31:55.284Z,34.85
2019-02-04T17:34:28.563Z,35.83
2019-02-04T17:37:00.759Z,36.14
2019-02-04T17:39:33.664Z,35.57
2019-02-04T17:42:06.354Z,35.57
2019-02-04T17:44:37.663Z,35.81
2019-02-04T17:47:08.947Z,36.03
2019-02-04T17:49:40.705Z,36.53
2019-02-04T17:52:15.020Z,38.56
2019-02-04T17:54:45.700Z,41.90
2019-02-04T17:57:21.740Z,42.12
2019-02-04T17:59:54.174Z,42.83
2019-02-04T18:02:54.145Z,42.20
2019-02-04T18:05:35.363Z,43.69
2019-02-04T18:08:18.817Z,42.87
2019-02-04T18:10:50.579Z,41.89
2019-02-04T18:16:28.422Z,40.26
2019-02-04T18:19:22.768Z,39.98
2019-02-04T18:21:57.806Z,39.36
2019-02-04T18:24:33.218Z,39.09
2019-02-04T18:27:06.372Z,38.89
2019-02-04T18:29:42.245Z,39.63
2019-02-04T18:32:18.724Z,39.27
2019-02-04T18:35:04.183Z,39.18
2019-02-04T18:37:35.561Z,38.06
2019-02-04T18:40:10.901Z,37.67
2019-02-04T18:42:48.459Z,37.62
2019-02-04T18:45:27.676Z,37.63
2019-02-04T18:48:05.904Z,37.42
2019-02-04T18:50:38.827Z,37.82
2019-02-04T18:53:12.614Z,38.44
2019-02-04T18:55:43.939Z,37.30
2019-02-04T18:58:14.170Z,38.06
2019-02-04T19:00:45.182Z,37.64
2019-02-04T19:03:18.274Z,37.76
2019-02-04T19:05:58.156Z,37.65
2019-02-04T19:08:41.880Z,37.28
2019-02-04T19:11:42.418Z,37.12
2019-02-04T19:14:22.307Z,36.97
2019-02-04T19:17:00.554Z,36.58
2019-02-04T19:19:47.453Z,37.26
2019-02-04T19:22:42.022Z,37.32
2019-02-04T19:25:14.213Z,37.07
2019-02-04T19:27:44.415Z,37.07
2019-02-04T19:30:43.044Z,37.68
2019-02-04T19:33:13.757Z,37.93
2019-02-04T19:35:45.929Z,38.37
2019-02-04T19:38:18.351Z,38.54
2019-02-04T19:40:49.491Z,39.09
2019-02-04T19:43:21.150Z,37.38
2019-02-04T19:45:52.190Z,37.40
2019-02-04T19:48:26.821Z,37.15
2019-02-04T19:50:59.764Z,36.40
2019-02-04T19:53:31.517Z,36.40
2019-02-04T19:56:04.419Z,36.71
2019-02-04T19:58:39.167Z,37.61
2019-02-04T20:01:14.395Z,37.25
2019-02-04T20:03:47.195Z,36.93
2019-02-04T20:06:19.435Z,36.54
2019-02-04T20:08:52.422Z,37.08
2019-02-04T20:11:24.926Z,36.69
2019-02-04T20:13:55.946Z,37.30
2019-02-04T20:16:27.220Z,37.48
2019-02-04T20:18:57.842Z,38.43
2019-02-04T20:21:28.151Z,36.87
2019-02-04T20:24:01.122Z,37.82
2019-02-04T20:26:34.426Z,36.66
2019-02-04T20:29:05.042Z,36.99
2019-02-04T20:31:36.329Z,36.78
2019-02-04T20:34:08.014Z,36.44
2019-02-04T20:36:42.176Z,36.10
2019-02-04T20:39:19.251Z,35.78
2019-02-04T20:41:52.695Z,35.73
2019-02-04T20:44:36.063Z,35.90
2019-02-04T20:47:22.550Z,36.56
2019-02-04T20:50:04.431Z,36.10
2019-02-04T20:52:40.675Z,36.16
2019-02-04T20:55:17.236Z,36.90
2019-02-04T20:57:56.129Z,37.04
2019-02-04T21:00:30.342Z,36.65
2019-02-04T21:03:06.806Z,36.57
2019-02-04T21:05:40.276Z,35.99
2019-02-04T21:08:14.841Z,36.35
2019-02-04T21:10:51.167Z,35.81
2019-02-04T21:13:38.726Z,35.60
2019-02-04T21:16:15.149Z,35.46
2019-02-04T21:18:53.736Z,36.77
2019-02-04T21:21:31.803Z,36.70
2019-02-04T21:24:12.756Z,36.36
2019-02-04T21:26:47.442Z,35.93
2019-02-04T21:29:35.360Z,35.50
2019-02-04T21:32:10.487Z,35.28
2019-02-04T21:34:42.516Z,35.52
2019-02-04T21:37:15.762Z,35.08
2019-02-04T21:39:48.131Z,35.13
2019-02-04T21:42:19.943Z,34.84
2019-02-04T21:44:51.180Z,35.53
2019-02-04T21:47:24.162Z,35.44
2019-02-04T21:50:00.114Z,35.86
2019-02-04T21:52:37.293Z,35.16
2019-02-04T21:55:10.881Z,34.86
2019-02-04T21:57:45.139Z,35.79
2019-02-04T22:00:33.016Z,35.10
2019-02-04T22:03:04.133Z,35.37
2019-02-04T22:05:35.858Z,36.35
2019-02-04T22:08:09.560Z,35.77
2019-02-04T22:10:45.911Z,36.07
2019-02-04T22:13:28.194Z,36.49
2019-02-04T22:16:03.678Z,36.41
2019-02-04T22:18:36.471Z,37.29
2019-02-04T22:21:12.541Z,37.81
2019-02-04T22:23:48.085Z,39.17
2019-02-04T22:26:22.754Z,39.35
2019-02-04T22:28:54.354Z,39.83
2019-02-04T22:31:28.352Z,39.16
2019-02-04T22:34:01.478Z,38.52
2019-02-04T22:36:32.826Z,39.56
2019-02-04T22:39:03.881Z,40.89
2019-02-04T22:41:38.602Z,40.98
2019-02-04T22:44:15.069Z,40.68
2019-02-04T22:46:48.759Z,40.28
2019-02-04T22:49:21.539Z,42.26
2019-02-04T22:52:00.631Z,43.08
2019-02-04T22:54:34.162Z,44.14
2019-02-04T22:57:06.587Z,43.29
2019-02-04T22:59:39.435Z,42.55
2019-02-04T23:02:13.425Z,43.33
2019-02-04T23:04:45.724Z,42.49
2019-02-04T23:07:19.735Z,42.06
2019-02-04T23:10:15.055Z,42.88
2019-02-04T23:12:50.558Z,41.44
2019-02-04T23:15:22.109Z,41.93
2019-02-04T23:17:57.249Z,42.96
2019-02-04T23:20:28.298Z,42.87
2019-02-04T23:23:00.548Z,42.67
2019-02-04T23:25:43.039Z,42.57
2019-02-04T23:28:11.509Z,42.14
2019-02-04T23:30:50.352Z,41.12
2019-02-04T23:33:33.835Z,41.01
2019-02-04T23:36:17.266Z,40.94
2019-02-04T23:38:50.380Z,40.65
2019-02-04T23:41:20.987Z,41.11
2019-02-04T23:43:53.670Z,41.58
2019-02-04T23:46:26.880Z,40.53
2019-02-04T23:49:03.132Z,41.01
2019-02-04T23:51:36.458Z,41.03
2019-02-04T23:54:07.570Z,40.66
2019-02-04T23:56:42.408Z,41.00
2019-02-04T23:59:15.942Z,40.35
